sensor_id;sensor_type;location;lat;lon;timestamp;pressure;altitude;pressure_sealevel;temperature;humidity
6208;BME280;3137;51.550;7.060;2023-05-11T00:00:32;76698.38;;;-145.94;71.02
6208;BME280;3137;51.550;7.060;2023-05-11T00:02:58;76692.25;;;-145.94;70.57
6208;BME280;3137;51.550;7.060;2023-05-11T00:05:25;76702.47;;;-145.94;70.72
6208;BME280;3137;51.550;7.060;2023-05-11T00:07:51;76704.50;;;-145.94;70.59
6208;BME280;3137;51.550;7.060;2023-05-11T00:10:18;76696.34;;;-145.94;70.81
6208;BME280;3137;51.550;7.060;2023-05-11T00:12:44;76688.19;;;-145.94;70.68
6208;BME280;3137;51.550;7.060;2023-05-11T00:15:11;76682.06;;;-145.94;70.44
6208;BME280;3137;51.550;7.060;2023-05-11T00:17:37;76678.00;;;-145.94;70.46
6208;BME280;3137;51.550;7.060;2023-05-11T00:20:04;76682.06;;;-145.94;70.48
6208;BME280;3137;51.550;7.060;2023-05-11T00:22:31;76690.22;;;-145.94;70.44
6208;BME280;3137;51.550;7.060;2023-05-11T00:24:57;76696.34;;;-145.94;70.28
6208;BME280;3137;51.550;7.060;2023-05-11T00:27:24;76694.31;;;-145.94;70.49
6208;BME280;3137;51.550;7.060;2023-05-11T00:29:50;76692.25;;;-145.94;70.71
6208;BME280;3137;51.550;7.060;2023-05-11T00:32:17;76692.25;;;-145.94;70.79
6208;BME280;3137;51.550;7.060;2023-05-11T00:34:43;76692.25;;;-145.94;70.87
6208;BME280;3137;51.550;7.060;2023-05-11T00:37:15;76694.31;;;-145.94;70.80
6208;BME280;3137;51.550;7.060;2023-05-11T00:39:41;76690.22;;;-145.94;71.02
6208;BME280;3137;51.550;7.060;2023-05-11T00:42:09;76692.25;;;-145.94;70.80
6208;BME280;3137;51.550;7.060;2023-05-11T00:44:36;76694.31;;;-145.94;70.87
6208;BME280;3137;51.550;7.060;2023-05-11T00:47:02;76710.63;;;-145.94;71.07
6208;BME280;3137;51.550;7.060;2023-05-11T00:49:29;76704.50;;;-145.94;71.37
6208;BME280;3137;51.550;7.060;2023-05-11T00:51:56;76714.69;;;-145.94;71.53
6208;BME280;3137;51.550;7.060;2023-05-11T00:54:23;76708.56;;;-145.94;72.07
6208;BME280;3137;51.550;7.060;2023-05-11T00:56:49;76710.63;;;-145.94;72.04
6208;BME280;3137;51.550;7.060;2023-05-11T00:59:17;76710.63;;;-145.94;72.25
6208;BME280;3137;51.550;7.060;2023-05-11T01:01:43;76692.25;;;-145.94;71.80
6208;BME280;3137;51.550;7.060;2023-05-11T01:04:11;76684.09;;;-145.94;71.33
6208;BME280;3137;51.550;7.060;2023-05-11T01:06:46;76686.16;;;-145.94;70.72
6208;BME280;3137;51.550;7.060;2023-05-11T01:11:57;76698.38;;;-145.94;71.00
6208;BME280;3137;51.550;7.060;2023-05-11T01:14:33;76700.41;;;-145.94;70.84
6208;BME280;3137;51.550;7.060;2023-05-11T01:17:17;76716.72;;;-145.94;70.91
6208;BME280;3137;51.550;7.060;2023-05-11T01:19:49;76706.53;;;-145.94;70.85
6208;BME280;3137;51.550;7.060;2023-05-11T01:22:33;76702.47;;;-145.94;71.00
6208;BME280;3137;51.550;7.060;2023-05-11T01:28:19;76712.66;;;-145.94;71.16
6208;BME280;3137;51.550;7.060;2023-05-11T01:30:56;76712.66;;;-145.94;70.99
6208;BME280;3137;51.550;7.060;2023-05-11T01:33:31;76714.69;;;-145.94;71.22
6208;BME280;3137;51.550;7.060;2023-05-11T01:36:03;76712.66;;;-145.94;71.42
6208;BME280;3137;51.550;7.060;2023-05-11T01:38:33;76722.84;;;-145.94;71.42
6208;BME280;3137;51.550;7.060;2023-05-11T01:41:07;76714.69;;;-145.94;71.31
6208;BME280;3137;51.550;7.060;2023-05-11T01:43:36;76714.69;;;-145.94;71.40
6208;BME280;3137;51.550;7.060;2023-05-11T01:46:06;76714.69;;;-145.94;71.09
6208;BME280;3137;51.550;7.060;2023-05-11T01:48:37;76722.84;;;-145.94;71.26
6208;BME280;3137;51.550;7.060;2023-05-11T01:51:06;76731.00;;;-145.94;71.49
6208;BME280;3137;51.550;7.060;2023-05-11T01:53:36;76739.16;;;-145.94;71.14
6208;BME280;3137;51.550;7.060;2023-05-11T01:56:03;76739.16;;;-145.94;71.39
6208;BME280;3137;51.550;7.060;2023-05-11T01:58:33;76731.00;;;-145.94;71.42
6208;BME280;3137;51.550;7.060;2023-05-11T02:01:02;76743.25;;;-145.94;71.24
6208;BME280;3137;51.550;7.060;2023-05-11T02:03:34;76739.16;;;-145.94;71.53
6208;BME280;3137;51.550;7.060;2023-05-11T02:06:03;76741.19;;;-145.94;71.40
6208;BME280;3137;51.550;7.060;2023-05-11T02:08:32;76745.28;;;-145.94;71.63
6208;BME280;3137;51.550;7.060;2023-05-11T02:10:59;76743.25;;;-145.94;71.44
6208;BME280;3137;51.550;7.060;2023-05-11T02:13:28;76745.28;;;-145.94;71.49
6208;BME280;3137;51.550;7.060;2023-05-11T02:15:56;76747.31;;;-145.94;71.53
6208;BME280;3137;51.550;7.060;2023-05-11T02:18:23;76751.41;;;-145.94;71.57
6208;BME280;3137;51.550;7.060;2023-05-11T02:20:57;76763.63;;;-145.94;71.80
6208;BME280;3137;51.550;7.060;2023-05-11T02:23:26;76761.59;;;-145.94;71.60
6208;BME280;3137;51.550;7.060;2023-05-11T02:25:53;76765.66;;;-145.94;71.61
6208;BME280;3137;51.550;7.060;2023-05-11T02:28:20;76771.78;;;-145.94;71.55
6208;BME280;3137;51.550;7.060;2023-05-11T02:30:50;76775.88;;;-145.94;72.22
6208;BME280;3137;51.550;7.060;2023-05-11T02:33:24;76771.78;;;-145.94;72.12
6208;BME280;3137;51.550;7.060;2023-05-11T02:35:54;76771.78;;;-145.94;72.34
6208;BME280;3137;51.550;7.060;2023-05-11T02:38:29;76779.94;;;-145.94;72.26
6208;BME280;3137;51.550;7.060;2023-05-11T02:40:57;76784.03;;;-145.94;72.47
6208;BME280;3137;51.550;7.060;2023-05-11T02:43:31;76782.00;;;-145.94;72.50
6208;BME280;3137;51.550;7.060;2023-05-11T02:46:05;76775.88;;;-145.94;72.72
6208;BME280;3137;51.550;7.060;2023-05-11T02:48:38;76784.03;;;-145.94;72.69
6208;BME280;3137;51.550;7.060;2023-05-11T02:51:09;76782.00;;;-145.94;72.29
6208;BME280;3137;51.550;7.060;2023-05-11T02:53:42;76790.16;;;-145.94;72.75
6208;BME280;3137;51.550;7.060;2023-05-11T02:56:11;76790.16;;;-145.94;72.51
6208;BME280;3137;51.550;7.060;2023-05-11T02:58:38;76788.09;;;-145.94;72.92
6208;BME280;3137;51.550;7.060;2023-05-11T03:01:15;76788.09;;;-145.94;72.93
6208;BME280;3137;51.550;7.060;2023-05-11T03:03:42;76788.09;;;-145.94;72.92
6208;BME280;3137;51.550;7.060;2023-05-11T03:06:09;76796.25;;;-145.94;72.74
6208;BME280;3137;51.550;7.060;2023-05-11T03:08:35;76788.09;;;-145.94;72.66
6208;BME280;3137;51.550;7.060;2023-05-11T03:11:03;76802.38;;;-145.94;72.66
6208;BME280;3137;51.550;7.060;2023-05-11T03:13:30;76796.25;;;-145.94;72.35
6208;BME280;3137;51.550;7.060;2023-05-11T03:15:59;76802.38;;;-145.94;72.62
6208;BME280;3137;51.550;7.060;2023-05-11T03:18:29;76798.31;;;-145.94;72.57
6208;BME280;3137;51.550;7.060;2023-05-11T03:20:59;76800.34;;;-145.94;72.48
6208;BME280;3137;51.550;7.060;2023-05-11T03:23:27;76798.31;;;-145.94;72.29
6208;BME280;3137;51.550;7.060;2023-05-11T03:25:55;76798.31;;;-145.94;72.55
6208;BME280;3137;51.550;7.060;2023-05-11T03:28:24;76800.34;;;-145.94;72.05
6208;BME280;3137;51.550;7.060;2023-05-11T03:30:59;76804.41;;;-145.94;72.07
6208;BME280;3137;51.550;7.060;2023-05-11T03:33:25;76802.38;;;-145.94;72.58
6208;BME280;3137;51.550;7.060;2023-05-11T03:35:52;76798.31;;;-145.94;72.50
6208;BME280;3137;51.550;7.060;2023-05-11T03:38:22;76802.38;;;-145.94;72.68
6208;BME280;3137;51.550;7.060;2023-05-11T03:40:51;76798.31;;;-145.94;72.29
6208;BME280;3137;51.550;7.060;2023-05-11T03:43:19;76798.31;;;-145.94;72.04
6208;BME280;3137;51.550;7.060;2023-05-11T03:45:52;76794.22;;;-145.94;72.34
6208;BME280;3137;51.550;7.060;2023-05-11T03:48:22;76788.09;;;-145.94;72.34
6208;BME280;3137;51.550;7.060;2023-05-11T03:50:50;76788.09;;;-145.94;71.90
6208;BME280;3137;51.550;7.060;2023-05-11T03:53:17;76784.03;;;-145.94;72.35
6208;BME280;3137;51.550;7.060;2023-05-11T03:55:44;76784.03;;;-145.94;72.32
6208;BME280;3137;51.550;7.060;2023-05-11T03:58:10;76790.16;;;-145.94;72.26
6208;BME280;3137;51.550;7.060;2023-05-11T04:00:38;76808.50;;;-145.94;72.37
6208;BME280;3137;51.550;7.060;2023-05-11T04:03:06;76810.53;;;-145.94;72.91
6208;BME280;3137;51.550;7.060;2023-05-11T04:05:33;76810.53;;;-145.94;72.76
6208;BME280;3137;51.550;7.060;2023-05-11T04:08:03;76796.25;;;-145.94;72.63
6208;BME280;3137;51.550;7.060;2023-05-11T04:10:29;76810.53;;;-145.94;72.79
6208;BME280;3137;51.550;7.060;2023-05-11T04:12:56;76796.25;;;-145.94;72.61
6208;BME280;3137;51.550;7.060;2023-05-11T04:15:22;76796.25;;;-145.94;72.85
6208;BME280;3137;51.550;7.060;2023-05-11T04:17:49;76796.25;;;-145.94;72.92
6208;BME280;3137;51.550;7.060;2023-05-11T04:20:15;76794.22;;;-145.94;73.08
6208;BME280;3137;51.550;7.060;2023-05-11T04:22:43;76794.22;;;-145.94;73.21
6208;BME280;3137;51.550;7.060;2023-05-11T04:25:09;76788.09;;;-145.94;73.11
6208;BME280;3137;51.550;7.060;2023-05-11T04:27:35;76784.03;;;-145.94;73.38
6208;BME280;3137;51.550;7.060;2023-05-11T04:30:03;76790.16;;;-145.94;73.25
6208;BME280;3137;51.550;7.060;2023-05-11T04:32:30;76786.06;;;-145.94;73.29
6208;BME280;3137;51.550;7.060;2023-05-11T04:34:56;76773.81;;;-145.94;72.77
6208;BME280;3137;51.550;7.060;2023-05-11T04:37:25;76771.78;;;-145.94;72.34
6208;BME280;3137;51.550;7.060;2023-05-11T04:39:52;76771.78;;;-145.94;72.60
6208;BME280;3137;51.550;7.060;2023-05-11T04:42:19;76775.88;;;-145.94;72.50
6208;BME280;3137;51.550;7.060;2023-05-11T04:44:52;76759.56;;;-145.94;72.44
6208;BME280;3137;51.550;7.060;2023-05-11T04:47:19;76759.56;;;-145.94;72.25
6208;BME280;3137;51.550;7.060;2023-05-11T04:49:47;76765.66;;;-145.94;72.24
6208;BME280;3137;51.550;7.060;2023-05-11T04:52:14;76759.56;;;-145.94;72.31
6208;BME280;3137;51.550;7.060;2023-05-11T04:54:43;76761.59;;;-145.94;71.75
6208;BME280;3137;51.550;7.060;2023-05-11T04:57:09;76761.59;;;-145.94;71.61
6208;BME280;3137;51.550;7.060;2023-05-11T04:59:36;76765.66;;;-145.94;71.79
6208;BME280;3137;51.550;7.060;2023-05-11T05:02:03;76763.63;;;-145.94;71.60
6208;BME280;3137;51.550;7.060;2023-05-11T05:04:29;76769.75;;;-145.94;71.37
6208;BME280;3137;51.550;7.060;2023-05-11T05:06:56;76773.81;;;-145.94;71.72
6208;BME280;3137;51.550;7.060;2023-05-11T05:09:22;76782.00;;;-145.94;71.43
6208;BME280;3137;51.550;7.060;2023-05-11T05:11:48;76777.91;;;-145.94;71.75
6208;BME280;3137;51.550;7.060;2023-05-11T05:14:15;76782.00;;;-145.94;71.68
6208;BME280;3137;51.550;7.060;2023-05-11T05:16:41;76782.00;;;-145.94;71.29
6208;BME280;3137;51.550;7.060;2023-05-11T05:19:08;76773.81;;;-145.94;71.75
6208;BME280;3137;51.550;7.060;2023-05-11T05:21:38;76771.78;;;-145.94;71.53
6208;BME280;3137;51.550;7.060;2023-05-11T05:24:05;76773.81;;;-145.94;71.72
6208;BME280;3137;51.550;7.060;2023-05-11T05:26:36;76775.88;;;-145.94;71.56
6208;BME280;3137;51.550;7.060;2023-05-11T05:29:04;76775.88;;;-145.94;71.72
6208;BME280;3137;51.550;7.060;2023-05-11T05:31:30;76773.81;;;-145.94;71.60
6208;BME280;3137;51.550;7.060;2023-05-11T05:33:57;76775.88;;;-145.94;71.20
6208;BME280;3137;51.550;7.060;2023-05-11T05:36:23;76777.91;;;-145.94;71.56
6208;BME280;3137;51.550;7.060;2023-05-11T05:38:50;76771.78;;;-145.94;71.47
6208;BME280;3137;51.550;7.060;2023-05-11T05:41:17;76777.91;;;-145.94;71.72
6208;BME280;3137;51.550;7.060;2023-05-11T05:43:44;76779.94;;;-145.94;71.29
6208;BME280;3137;51.550;7.060;2023-05-11T05:46:11;76777.91;;;-145.94;71.35
6208;BME280;3137;51.550;7.060;2023-05-11T05:48:37;76769.75;;;-145.94;71.57
6208;BME280;3137;51.550;7.060;2023-05-11T05:51:04;76773.81;;;-145.94;70.91
6208;BME280;3137;51.550;7.060;2023-05-11T05:53:30;76769.75;;;-145.94;71.27
6208;BME280;3137;51.550;7.060;2023-05-11T05:55:57;76769.75;;;-145.94;70.96
6208;BME280;3137;51.550;7.060;2023-05-11T05:58:23;76769.75;;;-145.94;71.49
6208;BME280;3137;51.550;7.060;2023-05-11T06:00:49;76765.66;;;-145.94;70.83
6208;BME280;3137;51.550;7.060;2023-05-11T06:03:16;76775.88;;;-145.94;70.68
6208;BME280;3137;51.550;7.060;2023-05-11T06:05:42;76771.78;;;-145.94;70.34
6208;BME280;3137;51.550;7.060;2023-05-11T06:08:10;76777.91;;;-145.94;70.48
6208;BME280;3137;51.550;7.060;2023-05-11T06:10:38;76779.94;;;-145.94;70.20
6208;BME280;3137;51.550;7.060;2023-05-11T06:13:06;76777.91;;;-145.94;70.18
6208;BME280;3137;51.550;7.060;2023-05-11T06:15:34;76775.88;;;-145.94;70.15
6208;BME280;3137;51.550;7.060;2023-05-11T06:18:07;76779.94;;;-145.94;70.33
6208;BME280;3137;51.550;7.060;2023-05-11T06:20:34;76773.81;;;-145.94;69.69
6208;BME280;3137;51.550;7.060;2023-05-11T06:23:02;76769.75;;;-145.94;69.53
6208;BME280;3137;51.550;7.060;2023-05-11T06:25:29;76757.50;;;-145.94;69.52
6208;BME280;3137;51.550;7.060;2023-05-11T06:27:55;76759.56;;;-145.94;69.41
6208;BME280;3137;51.550;7.060;2023-05-11T06:30:22;76757.50;;;-145.94;68.64
6208;BME280;3137;51.550;7.060;2023-05-11T06:32:51;76757.50;;;-145.94;68.48
6208;BME280;3137;51.550;7.060;2023-05-11T06:35:19;76737.13;;;-145.94;68.43
6208;BME280;3137;51.550;7.060;2023-05-11T06:37:46;76724.88;;;-145.94;68.84
6208;BME280;3137;51.550;7.060;2023-05-11T06:40:12;76718.78;;;-145.94;68.41
6208;BME280;3137;51.550;7.060;2023-05-11T06:42:42;76718.78;;;-145.94;68.33
6208;BME280;3137;51.550;7.060;2023-05-11T06:45:09;76720.81;;;-145.94;68.08
6208;BME280;3137;51.550;7.060;2023-05-11T06:47:39;76722.84;;;-145.94;67.31
6208;BME280;3137;51.550;7.060;2023-05-11T06:50:07;76720.81;;;-145.94;68.15
6208;BME280;3137;51.550;7.060;2023-05-11T06:52:36;76722.84;;;-145.94;67.69
6208;BME280;3137;51.550;7.060;2023-05-11T06:55:02;76722.84;;;-145.94;67.99
6208;BME280;3137;51.550;7.060;2023-05-11T06:57:29;76726.94;;;-145.94;67.42
6208;BME280;3137;51.550;7.060;2023-05-11T06:59:56;76737.13;;;-145.94;67.35
6208;BME280;3137;51.550;7.060;2023-05-11T07:02:22;76728.97;;;-145.94;67.87
6208;BME280;3137;51.550;7.060;2023-05-11T07:04:49;76728.97;;;-145.94;68.39
6208;BME280;3137;51.550;7.060;2023-05-11T07:07:16;76737.13;;;-145.94;67.66
6208;BME280;3137;51.550;7.060;2023-05-11T07:09:42;76728.97;;;-145.94;66.91
6208;BME280;3137;51.550;7.060;2023-05-11T07:12:08;76708.56;;;-145.94;67.33
6208;BME280;3137;51.550;7.060;2023-05-11T07:14:35;76708.56;;;-145.94;66.62
6208;BME280;3137;51.550;7.060;2023-05-11T07:17:01;76714.69;;;-145.94;65.70
6208;BME280;3137;51.550;7.060;2023-05-11T07:19:28;76714.69;;;-145.94;65.92
6208;BME280;3137;51.550;7.060;2023-05-11T07:21:55;76714.69;;;-145.94;65.33
6208;BME280;3137;51.550;7.060;2023-05-11T07:24:21;76716.72;;;-145.94;65.74
6208;BME280;3137;51.550;7.060;2023-05-11T07:26:48;76728.97;;;-145.94;65.76
6208;BME280;3137;51.550;7.060;2023-05-11T07:29:15;76720.81;;;-145.94;65.13
6208;BME280;3137;51.550;7.060;2023-05-11T07:31:42;76696.34;;;-145.94;64.86
6208;BME280;3137;51.550;7.060;2023-05-11T07:34:09;76682.06;;;-145.94;64.51
6208;BME280;3137;51.550;7.060;2023-05-11T07:36:35;76680.03;;;-145.94;64.19
6208;BME280;3137;51.550;7.060;2023-05-11T07:39:02;76659.63;;;-145.94;64.05
6208;BME280;3137;51.550;7.060;2023-05-11T07:41:28;76639.25;;;-145.94;64.33
6208;BME280;3137;51.550;7.060;2023-05-11T07:43:54;76655.56;;;-145.94;63.37
6208;BME280;3137;51.550;7.060;2023-05-11T07:46:21;76653.53;;;-145.94;62.85
6208;BME280;3137;51.550;7.060;2023-05-11T07:48:47;76635.16;;;-145.94;62.92
6208;BME280;3137;51.550;7.060;2023-05-11T07:51:22;76624.97;;;-145.94;62.89
6208;BME280;3137;51.550;7.060;2023-05-11T07:53:49;76608.66;;;-145.94;62.07
6208;BME280;3137;51.550;7.060;2023-05-11T07:56:15;76592.34;;;-145.94;61.81
6208;BME280;3137;51.550;7.060;2023-05-11T07:58:42;76580.13;;;-145.94;62.89
6208;BME280;3137;51.550;7.060;2023-05-11T08:01:08;76580.13;;;-145.94;62.08
6208;BME280;3137;51.550;7.060;2023-05-11T08:03:35;76574.00;;;-145.94;61.73
6208;BME280;3137;51.550;7.060;2023-05-11T08:06:02;76565.84;;;-145.94;61.22
6208;BME280;3137;51.550;7.060;2023-05-11T08:08:29;76567.88;;;-145.94;61.60
6208;BME280;3137;51.550;7.060;2023-05-11T08:10:55;76561.75;;;-145.94;62.53
6208;BME280;3137;51.550;7.060;2023-05-11T08:13:22;76549.53;;;-145.94;61.89
6208;BME280;3137;51.550;7.060;2023-05-11T08:15:48;76569.91;;;-145.94;61.63
6208;BME280;3137;51.550;7.060;2023-05-11T08:18:15;76559.72;;;-145.94;62.33
6208;BME280;3137;51.550;7.060;2023-05-11T08:20:41;76549.53;;;-145.94;61.99
6208;BME280;3137;51.550;7.060;2023-05-11T08:23:08;76549.53;;;-145.94;61.60
6208;BME280;3137;51.550;7.060;2023-05-11T08:25:35;76539.34;;;-145.94;62.05
6208;BME280;3137;51.550;7.060;2023-05-11T08:28:02;76533.22;;;-145.94;60.65
6208;BME280;3137;51.550;7.060;2023-05-11T08:30:28;76525.06;;;-145.94;59.73
6208;BME280;3137;51.550;7.060;2023-05-11T08:32:55;76539.34;;;-145.94;59.84
6208;BME280;3137;51.550;7.060;2023-05-11T08:35:24;76563.81;;;-145.94;59.93
6208;BME280;3137;51.550;7.060;2023-05-11T08:37:51;76565.84;;;-145.94;60.06
6208;BME280;3137;51.550;7.060;2023-05-11T08:40:19;76563.81;;;-145.94;60.56
6208;BME280;3137;51.550;7.060;2023-05-11T08:42:48;76563.81;;;-145.94;61.03
6208;BME280;3137;51.550;7.060;2023-05-11T08:45:16;76561.75;;;-145.94;60.89
6208;BME280;3137;51.550;7.060;2023-05-11T08:47:44;76561.75;;;-145.94;60.66
6208;BME280;3137;51.550;7.060;2023-05-11T08:50:10;76569.91;;;-145.94;60.70
6208;BME280;3137;51.550;7.060;2023-05-11T08:52:37;76576.03;;;-145.94;60.70
6208;BME280;3137;51.550;7.060;2023-05-11T08:55:04;76571.97;;;-145.94;60.93
6208;BME280;3137;51.550;7.060;2023-05-11T08:57:30;76569.91;;;-145.94;60.33
6208;BME280;3137;51.550;7.060;2023-05-11T09:00:01;76584.19;;;-145.94;59.94
6208;BME280;3137;51.550;7.060;2023-05-11T09:02:28;76586.22;;;-145.94;60.98
6208;BME280;3137;51.550;7.060;2023-05-11T09:04:54;76586.22;;;-145.94;60.55
6208;BME280;3137;51.550;7.060;2023-05-11T09:07:22;76582.16;;;-145.94;60.61
6208;BME280;3137;51.550;7.060;2023-05-11T09:09:49;76567.88;;;-145.94;61.10
6208;BME280;3137;51.550;7.060;2023-05-11T09:12:15;76576.03;;;-145.94;60.44
6208;BME280;3137;51.550;7.060;2023-05-11T09:14:42;76569.91;;;-145.94;59.75
6208;BME280;3137;51.550;7.060;2023-05-11T09:17:08;76574.00;;;-145.94;60.74
6208;BME280;3137;51.550;7.060;2023-05-11T09:19:35;76565.84;;;-145.94;60.89
6208;BME280;3137;51.550;7.060;2023-05-11T09:22:04;76565.84;;;-145.94;62.25
6208;BME280;3137;51.550;7.060;2023-05-11T09:24:30;76574.00;;;-145.94;61.40
6208;BME280;3137;51.550;7.060;2023-05-11T09:27:05;76586.22;;;-145.94;61.68
6208;BME280;3137;51.550;7.060;2023-05-11T09:29:32;76592.34;;;-145.94;60.94
6208;BME280;3137;51.550;7.060;2023-05-11T09:31:58;76578.06;;;-145.94;62.82
6208;BME280;3137;51.550;7.060;2023-05-11T09:34:25;76580.13;;;-145.94;62.25
6208;BME280;3137;51.550;7.060;2023-05-11T09:36:53;76592.34;;;-145.94;61.98
6208;BME280;3137;51.550;7.060;2023-05-11T09:39:31;76586.22;;;-145.94;61.54
6208;BME280;3137;51.550;7.060;2023-05-11T09:44:41;76576.03;;;-145.94;62.60
6208;BME280;3137;51.550;7.060;2023-05-11T09:47:17;76576.03;;;-145.94;61.14
6208;BME280;3137;51.550;7.060;2023-05-11T09:49:45;76561.75;;;-145.94;61.84
6208;BME280;3137;51.550;7.060;2023-05-11T09:52:17;76576.03;;;-145.94;60.18
6208;BME280;3137;51.550;7.060;2023-05-11T09:54:49;76567.88;;;-145.94;60.63
6208;BME280;3137;51.550;7.060;2023-05-11T09:57:29;76559.72;;;-145.94;60.67
6208;BME280;3137;51.550;7.060;2023-05-11T09:59:57;76561.75;;;-145.94;61.27
6208;BME280;3137;51.550;7.060;2023-05-11T10:02:26;76553.59;;;-145.94;60.30
6208;BME280;3137;51.550;7.060;2023-05-11T10:04:54;76543.41;;;-145.94;60.92
6208;BME280;3137;51.550;7.060;2023-05-11T10:09:59;76547.50;;;-145.94;59.20
6208;BME280;3137;51.550;7.060;2023-05-11T10:12:27;76539.34;;;-145.94;59.92
6208;BME280;3137;51.550;7.060;2023-05-11T10:15:06;76537.28;;;-145.94;59.04
6208;BME280;3137;51.550;7.060;2023-05-11T10:17:34;76529.13;;;-145.94;59.24
6208;BME280;3137;51.550;7.060;2023-05-11T10:20:02;76512.81;;;-145.94;60.42
6208;BME280;3137;51.550;7.060;2023-05-11T10:22:29;76516.91;;;-145.94;57.72
6208;BME280;3137;51.550;7.060;2023-05-11T10:24:57;76525.06;;;-145.94;58.54
6208;BME280;3137;51.550;7.060;2023-05-11T10:27:24;76525.06;;;-145.94;57.68
6208;BME280;3137;51.550;7.060;2023-05-11T10:29:51;76514.88;;;-145.94;59.20
6208;BME280;3137;51.550;7.060;2023-05-11T10:32:18;76518.94;;;-145.94;59.13
6208;BME280;3137;51.550;7.060;2023-05-11T10:34:46;76523.03;;;-145.94;58.00
6208;BME280;3137;51.550;7.060;2023-05-11T10:37:14;76514.88;;;-145.94;57.25
6208;BME280;3137;51.550;7.060;2023-05-11T10:39:41;76502.63;;;-145.94;57.83
6208;BME280;3137;51.550;7.060;2023-05-11T10:45:18;76496.50;;;-145.94;57.74
6208;BME280;3137;51.550;7.060;2023-05-11T10:50:46;76480.19;;;-145.94;57.90
6208;BME280;3137;51.550;7.060;2023-05-11T10:59:37;76472.03;;;-145.94;57.48
6208;BME280;3137;51.550;7.060;2023-05-11T11:02:08;76470.00;;;-145.94;58.18
6208;BME280;3137;51.550;7.060;2023-05-11T11:04:49;76470.00;;;-145.94;57.92
6208;BME280;3137;51.550;7.060;2023-05-11T11:07:17;76465.94;;;-145.94;57.86
6208;BME280;3137;51.550;7.060;2023-05-11T11:09:54;76463.88;;;-145.94;56.51
6208;BME280;3137;51.550;7.060;2023-05-11T11:12:28;76459.81;;;-145.94;58.36
6208;BME280;3137;51.550;7.060;2023-05-11T11:15:03;76459.81;;;-145.94;58.19
6208;BME280;3137;51.550;7.060;2023-05-11T11:17:32;76484.28;;;-145.94;59.78
6208;BME280;3137;51.550;7.060;2023-05-11T11:20:01;76498.56;;;-145.94;60.00
6208;BME280;3137;51.550;7.060;2023-05-11T11:25:07;76518.94;;;-145.94;59.95
6208;BME280;3137;51.550;7.060;2023-05-11T11:32:40;76545.44;;;-145.94;60.77
6208;BME280;3137;51.550;7.060;2023-05-11T11:38:13;76569.91;;;-145.94;60.10
6208;BME280;3137;51.550;7.060;2023-05-11T11:40:48;76567.88;;;-145.94;60.27
6208;BME280;3137;51.550;7.060;2023-05-11T11:43:23;76574.00;;;-145.94;61.16
6208;BME280;3137;51.550;7.060;2023-05-11T11:56:04;76571.97;;;-145.94;63.36
6208;BME280;3137;51.550;7.060;2023-05-11T12:01:13;76586.22;;;-145.94;63.13
6208;BME280;3137;51.550;7.060;2023-05-11T12:03:43;76586.22;;;-145.94;63.88
6208;BME280;3137;51.550;7.060;2023-05-11T12:06:10;76588.28;;;-145.94;64.03
6208;BME280;3137;51.550;7.060;2023-05-11T12:08:38;76582.16;;;-145.94;64.49
6208;BME280;3137;51.550;7.060;2023-05-11T12:11:06;76567.88;;;-145.94;64.60
6208;BME280;3137;51.550;7.060;2023-05-11T12:13:34;76565.84;;;-145.94;63.94
6208;BME280;3137;51.550;7.060;2023-05-11T12:16:07;76565.84;;;-145.94;63.71
6208;BME280;3137;51.550;7.060;2023-05-11T12:18:35;76555.66;;;-145.94;64.14
6208;BME280;3137;51.550;7.060;2023-05-11T12:21:01;76549.53;;;-145.94;63.49
6208;BME280;3137;51.550;7.060;2023-05-11T12:23:28;76541.38;;;-145.94;63.23
6208;BME280;3137;51.550;7.060;2023-05-11T12:26:05;76527.09;;;-145.94;63.12
6208;BME280;3137;51.550;7.060;2023-05-11T12:28:32;76520.97;;;-145.94;62.06
6208;BME280;3137;51.550;7.060;2023-05-11T12:30:58;76510.78;;;-145.94;60.98
6208;BME280;3137;51.550;7.060;2023-05-11T12:33:26;76500.59;;;-145.94;61.43
6208;BME280;3137;51.550;7.060;2023-05-11T12:35:54;76482.25;;;-145.94;61.20
6208;BME280;3137;51.550;7.060;2023-05-11T12:38:21;76461.84;;;-145.94;61.94
6208;BME280;3137;51.550;7.060;2023-05-11T12:40:49;76447.56;;;-145.94;61.50
6208;BME280;3137;51.550;7.060;2023-05-11T12:43:20;76457.78;;;-145.94;59.67
6208;BME280;3137;51.550;7.060;2023-05-11T12:45:47;76447.56;;;-145.94;60.77
6208;BME280;3137;51.550;7.060;2023-05-11T12:48:14;76455.72;;;-145.94;60.10
6208;BME280;3137;51.550;7.060;2023-05-11T12:50:43;76443.50;;;-145.94;60.32
6208;BME280;3137;51.550;7.060;2023-05-11T12:53:17;76437.38;;;-145.94;60.00
6208;BME280;3137;51.550;7.060;2023-05-11T12:55:56;76429.22;;;-145.94;59.82
6208;BME280;3137;51.550;7.060;2023-05-11T12:58:22;76433.31;;;-145.94;58.27
6208;BME280;3137;51.550;7.060;2023-05-11T13:00:53;76425.16;;;-145.94;59.55
6208;BME280;3137;51.550;7.060;2023-05-11T13:03:23;76421.06;;;-145.94;59.68
6208;BME280;3137;51.550;7.060;2023-05-11T13:05:51;76421.06;;;-145.94;60.12
6208;BME280;3137;51.550;7.060;2023-05-11T13:08:18;76412.91;;;-145.94;59.34
6208;BME280;3137;51.550;7.060;2023-05-11T13:10:45;76412.91;;;-145.94;59.92
6208;BME280;3137;51.550;7.060;2023-05-11T13:13:25;76431.28;;;-145.94;58.14
6208;BME280;3137;51.550;7.060;2023-05-11T13:15:52;76427.19;;;-145.94;58.39
6208;BME280;3137;51.550;7.060;2023-05-11T13:18:18;76402.72;;;-145.94;60.96
6208;BME280;3137;51.550;7.060;2023-05-11T13:20:45;76396.59;;;-145.94;59.49
6208;BME280;3137;51.550;7.060;2023-05-11T13:23:13;76398.66;;;-145.94;58.86
6208;BME280;3137;51.550;7.060;2023-05-11T13:25:51;76404.75;;;-145.94;58.99
6208;BME280;3137;51.550;7.060;2023-05-11T13:28:20;76404.75;;;-145.94;59.92
6208;BME280;3137;51.550;7.060;2023-05-11T13:30:47;76417.00;;;-145.94;58.14
6208;BME280;3137;51.550;7.060;2023-05-11T13:33:17;76417.00;;;-145.94;58.65
6208;BME280;3137;51.550;7.060;2023-05-11T13:35:44;76410.88;;;-145.94;58.41
6208;BME280;3137;51.550;7.060;2023-05-11T13:38:11;76408.84;;;-145.94;57.97
6208;BME280;3137;51.550;7.060;2023-05-11T13:40:38;76423.13;;;-145.94;59.20
6208;BME280;3137;51.550;7.060;2023-05-11T13:43:05;76459.81;;;-145.94;58.98
6208;BME280;3137;51.550;7.060;2023-05-11T13:45:31;76484.28;;;-145.94;59.51
6208;BME280;3137;51.550;7.060;2023-05-11T13:47:57;76480.19;;;-145.94;60.21
6208;BME280;3137;51.550;7.060;2023-05-11T13:50:25;76488.34;;;-145.94;60.39
6208;BME280;3137;51.550;7.060;2023-05-11T13:52:52;76504.66;;;-145.94;60.78